Time;durP1;ratioP1;P1;durP2;ratioP2;P2;SDS_P1;SDS_P2;PMS_P1;PMS_P2;Temp;Humidity;BMP_temperature;BMP_pressure;BME280_temperature;BME280_humidity;BME280_pressure;Samples;Min_cycle;Max_cycle;Signal;HPM_P1;HPM_P2
2021/12/17 00:00:08;;;;;;;287.42;273.88;;;;;;;7.89;69.54;103163.22;682690;28;69313;-69
2021/12/17 00:00:36;;;;;;;275.88;262.73;;;;;;;7.88;69.23;103169.56;680706;28;137929;-69
2021/12/17 00:00:59;;;;;;;253.93;241.90;;;;;;;7.87;69.22;103157.94;682703;28;69254;-69
2021/12/17 00:01:36;;;;;;;284.83;271.42;;;;;;;7.86;69.10;103164.28;684631;28;67318;-69
2021/12/17 00:02:47;;;;;;;239.18;227.82;;;;;;;7.86;69.48;103169.66;682772;28;138656;-70
2021/12/17 00:03:44;;;;;;;242.85;231.45;;;;;;;7.87;69.32;103170.53;680370;28;138372;-69
2021/12/17 00:04:24;;;;;;;226.38;215.68;;;;;;;7.87;68.99;103167.84;680333;28;138234;-69
2021/12/17 00:04:55;;;;;;;219.77;209.40;;;;;;;7.86;69.19;103166.97;680492;28;137330;-69
2021/12/17 00:05:18;;;;;;;223.10;212.50;;;;;;;7.87;68.95;103176.78;680593;28;137443;-70
2021/12/17 00:05:46;;;;;;;226.85;216.15;;;;;;;7.85;68.99;103173.31;682841;28;69249;-70
2021/12/17 00:06:16;;;;;;;206.43;196.63;;;;;;;7.84;68.72;103170.72;680540;28;137068;-70
2021/12/17 00:06:47;;;;;;;223.37;212.73;;;;;;;7.83;68.93;103171.69;680227;28;137904;-70
2021/12/17 00:07:12;;;;;;;208.13;198.07;;;;;;;7.81;68.99;103173.63;680406;28;138505;-69
2021/12/17 00:07:37;;;;;;;181.98;173.20;;;;;;;7.82;69.12;103172.63;681700;28;115110;-69
2021/12/17 00:07:58;;;;;;;172.53;164.03;;;;;;;7.81;69.12;103170.94;679621;28;135079;-70
2021/12/17 00:08:20;;;;;;;167.35;159.20;;;;;;;7.79;68.97;103173.72;683736;28;46477;-69
2021/12/17 00:08:45;;;;;;;172.80;164.38;;;;;;;7.79;69.04;103170.16;683394;28;46343;-70
2021/12/17 00:09:07;;;;;;;160.75;153.07;;;;;;;7.78;69.31;103163.06;681245;28;114902;-70
2021/12/17 00:09:28;;;;;;;149.98;142.82;;;;;;;7.79;69.33;103168.34;683756;28;47657;-69
2021/12/17 00:09:50;;;;;;;142.00;135.25;;;;;;;7.76;69.27;103173.91;684545;28;22406;-69
2021/12/17 00:10:15;;;;;;;154.32;146.90;;;;;;;7.80;69.50;103170.03;683515;28;44367;-69
2021/12/17 00:10:37;;;;;;;145.52;138.57;;;;;;;7.80;69.04;103171.88;682143;28;89159;-69
2021/12/17 00:10:58;;;;;;;143.48;136.52;;;;;;;7.79;69.37;103171.03;683789;28;46254;-69
2021/12/17 00:11:21;;;;;;;160.95;153.18;;;;;;;7.75;69.05;103159.59;684579;28;17179;-70
2021/12/17 00:11:43;;;;;;;153.27;145.93;;;;;;;7.79;69.29;103171.03;682792;28;69271;-69
2021/12/17 00:12:09;;;;;;;145.27;138.43;;;;;;;7.79;69.38;103165.66;684614;28;22212;-69
2021/12/17 00:12:30;;;;;;;146.82;139.90;;;;;;;7.79;69.21;103164.75;680440;28;138120;-69
2021/12/17 00:12:52;;;;;;;159.05;151.45;;;;;;;7.80;69.57;103169.19;683761;28;21522;-69
2021/12/17 00:13:13;;;;;;;147.25;140.25;;;;;;;7.80;69.15;103161.13;683749;28;45302;-70
2021/12/17 00:13:35;;;;;;;142.60;135.82;;;;;;;7.81;69.54;103165.56;684665;28;23467;-70
2021/12/17 00:13:58;;;;;;;158.63;150.95;;;;;;;7.80;69.56;103161.13;683944;28;44313;-70
2021/12/17 00:14:26;;;;;;;155.00;147.55;;;;;;;7.81;69.18;103162.88;683154;28;70163;-69
2021/12/17 00:14:49;;;;;;;136.25;129.80;;;;;;;7.78;69.36;103163.06;680104;28;137772;-69
2021/12/17 00:15:11;;;;;;;148.63;141.55;;;;;;;7.80;69.46;103159.28;682931;28;68323;-69
2021/12/17 00:15:33;;;;;;;165.25;157.40;;;;;;;7.81;69.42;103163.72;687562;28;48737;-69
2021/12/17 00:15:54;;;;;;;229.55;218.63;;;;;;;7.81;69.07;103161.03;688092;28;23477;-69
2021/12/17 00:16:19;;;;;;;257.52;245.27;;;;;;;7.79;69.39;103156.69;688453;28;23492;-69
2021/12/17 00:16:42;;;;;;;207.23;197.18;;;;;;;7.81;69.06;103163.72;684542;28;136194;-69
2021/12/17 00:17:07;;;;;;;190.13;180.80;;;;;;;7.81;69.08;103162.88;687199;28;46562;-69
2021/12/17 00:17:32;;;;;;;226.48;215.80;;;;;;;7.80;69.31;103164.66;683393;28;138821;-69
2021/12/17 00:18:00;;;;;;;221.90;211.43;;;;;;;7.79;69.15;103157.59;679769;28;137290;-69
2021/12/17 00:18:27;;;;;;;213.43;203.25;;;;;;;7.81;69.42;103160.16;680327;28;138056;-69
2021/12/17 00:19:07;;;;;;;228.75;217.90;;;;;;;7.78;69.30;103157.69;680831;28;137814;-69
2021/12/17 00:19:43;;;;;;;257.15;244.95;;;;;;;7.80;69.13;103156.59;680603;28;137809;-69
2021/12/17 00:20:35;;;;;;;260.17;248.02;;;;;;;7.79;69.27;103154.88;680586;28;137362;-69
2021/12/17 00:43:56;;;;;;;221.30;210.85;;;;;;;7.74;69.19;103165.94;681436;28;158965;-70
2021/12/17 00:48:23;;;;;;;265.45;252.85;;;;;;;7.85;68.50;103161.69;679585;28;137677;-70
2021/12/17 00:48:52;;;;;;;293.38;279.67;;;;;;;7.84;68.27;103155.44;674731;29;137555;-70
2021/12/17 00:49:13;;;;;;;276.48;263.42;;;;;;;7.84;68.33;103159.97;680284;28;21501;-70
2021/12/17 00:49:37;;;;;;;270.00;257.38;;;;;;;7.84;68.65;103154.59;685260;28;22374;-70
2021/12/17 00:50:09;;;;;;;286.63;273.20;;;;;;;7.84;68.53;103143.81;683064;28;92269;-70
2021/12/17 00:50:49;;;;;;;259.00;246.68;;;;;;;7.86;68.64;103152.66;681588;28;137691;-70
2021/12/17 00:52:02;;;;;;;238.32;227.02;;;;;;;7.83;68.13;103151.03;680066;28;137413;-70
2021/12/17 00:52:23;;;;;;;257.92;245.68;;;;;;;7.81;68.39;103150.25;682597;28;67324;-70
2021/12/17 00:52:44;;;;;;;260.40;248.07;;;;;;;7.80;68.29;103144.97;683387;28;22395;-70
2021/12/17 00:53:06;;;;;;;252.40;240.43;;;;;;;7.79;68.53;103156.69;684160;28;22376;-70
2021/12/17 00:53:30;;;;;;;269.02;256.45;;;;;;;7.79;68.22;103154.88;683282;28;45263;-70
2021/12/17 00:53:52;;;;;;;285.40;272.02;;;;;;;7.78;68.32;103158.53;679241;28;92261;-70
2021/12/17 00:54:20;;;;;;;265.77;253.18;;;;;;;7.76;68.62;103153.25;682547;28;67272;-70
2021/12/17 00:54:43;;;;;;;280.83;267.60;;;;;;;7.76;68.42;103158.63;677570;29;136322;-70
2021/12/17 00:55:05;;;;;;;260.90;248.57;;;;;;;7.76;68.55;103166.69;681474;28;68277;-70
2021/12/17 00:55:26;;;;;;;246.02;234.30;;;;;;;7.77;68.61;103159.47;678985;28;68896;-70
2021/12/17 00:55:47;;;;;;;241.40;229.90;;;;;;;7.78;68.42;103155.84;682150;28;23486;-70
2021/12/17 00:56:09;;;;;;;246.35;234.68;;;;;;;7.78;68.74;103155.84;682929;28;23432;-70
2021/12/17 00:56:31;;;;;;;240.40;229.00;;;;;;;7.76;68.61;103150.56;683771;28;21414;-68
2021/12/17 00:56:54;;;;;;;254.32;242.20;;;;;;;7.78;68.63;103155.00;682472;28;44386;-70
2021/12/17 00:57:18;;;;;;;248.77;236.95;;;;;;;7.79;68.39;103141.44;681104;28;68486;-70
2021/12/17 00:57:43;;;;;;;257.35;245.10;;;;;;;7.76;68.39;103142.50;675221;28;137813;-70
2021/12/17 00:58:05;;;;;;;274.33;261.25;;;;;;;7.79;68.77;103145.94;680658;28;90500;-70
2021/12/17 00:58:26;;;;;;;266.73;254.13;;;;;;;7.80;68.74;103139.59;679681;28;45303;-70
2021/12/17 00:58:47;;;;;;;256.95;244.73;;;;;;;7.80;68.54;103137.75;681941;28;23472;-70
2021/12/17 00:59:08;;;;;;;257.88;245.60;;;;;;;7.80;68.78;103139.59;682934;28;22395;-70
2021/12/17 00:59:31;;;;;;;258.50;246.32;;;;;;;7.78;68.66;103134.31;681864;28;21519;-68
2021/12/17 00:59:54;;;;;;;230.25;219.35;;;;;;;7.78;68.65;103139.69;681621;28;47400;-70
2021/12/17 01:00:19;;;;;;;224.82;214.18;;;;;;;7.80;68.63;103147.66;682102;28;69314;-70
2021/12/17 01:00:41;;;;;;;224.73;213.98;;;;;;;7.76;68.66;103137.09;681160;28;136614;-70
2021/12/17 01:01:04;;;;;;;224.63;213.85;;;;;;;7.79;68.58;103152.19;685442;28;23533;-74
2021/12/17 01:01:25;;;;;;;224.77;214.10;;;;;;;7.80;68.72;103144.97;686177;28;45061;-68
2021/12/17 01:01:49;;;;;;;234.05;222.85;;;;;;;7.80;68.68;103145.84;683683;28;69340;-70
2021/12/17 01:02:17;;;;;;;223.27;212.73;;;;;;;7.78;68.40;103147.78;682421;28;92051;-70
2021/12/17 01:02:38;;;;;;;248.50;236.85;;;;;;;7.79;68.68;103149.50;680802;28;138162;-68
2021/12/17 01:03:00;;;;;;;236.40;225.30;;;;;;;7.79;68.32;103154.00;681847;28;46432;-70
2021/12/17 01:03:21;;;;;;;227.32;216.52;;;;;;;7.80;68.38;103150.34;678733;29;22408;-70
2021/12/17 01:03:43;;;;;;;231.43;220.43;;;;;;;7.78;68.64;103158.53;680004;29;21501;-70
2021/12/17 01:04:05;;;;;;;229.25;218.27;;;;;;;7.78;68.70;103153.16;680663;29;46334;-70
2021/12/17 01:04:27;;;;;;;241.25;229.75;;;;;;;7.75;68.71;103148.81;680840;28;46445;-70
2021/12/17 01:04:50;;;;;;;249.88;238.07;;;;;;;7.73;68.43;103149.91;680984;28;46369;-70
2021/12/17 01:05:15;;;;;;;233.20;222.25;;;;;;;7.74;68.45;103141.72;680929;28;92333;-70
2021/12/17 01:05:36;;;;;;;240.48;229.02;;;;;;;7.74;68.51;103151.59;679171;28;92143;-70
2021/12/17 01:05:58;;;;;;;251.77;239.82;;;;;;;7.73;68.82;103156.13;682534;28;45054;-70
2021/12/17 01:06:20;;;;;;;222.63;212.02;;;;;;;7.74;68.74;103148.91;682364;28;45764;-69
2021/12/17 01:06:42;;;;;;;200.60;190.95;;;;;;;7.72;68.95;103143.63;682979;28;23486;-70
2021/12/17 01:07:04;;;;;;;211.80;201.57;;;;;;;7.73;68.54;103152.59;678143;29;45126;-70
2021/12/17 01:07:33;;;;;;;221.15;210.45;;;;;;;7.73;68.76;103153.44;676119;29;67347;-70
2021/12/17 01:07:58;;;;;;;211.52;201.38;;;;;;;7.71;68.57;103150.00;672467;28;137716;-70
2021/12/17 01:08:20;;;;;;;194.52;185.02;;;;;;;7.77;68.78;103148.72;677126;28;69423;-70
2021/12/17 01:08:47;;;;;;;214.63;204.23;;;;;;;7.75;68.83;103151.50;678511;29;61658;-70
2021/12/17 01:09:16;;;;;;;201.77;191.98;;;;;;;7.76;68.53;103153.25;676750;28;138257;-70
2021/12/17 01:09:38;;;;;;;195.85;186.38;;;;;;;7.76;68.72;103157.78;676429;29;137966;-70
2021/12/17 01:10:06;;;;;;;189.65;180.40;;;;;;;7.76;68.51;103155.94;679077;28;136443;-70
2021/12/17 01:10:39;;;;;;;184.73;175.75;;;;;;;7.75;68.61;103150.66;677950;28;134892;-70
2021/12/17 01:11:30;;;;;;;164.65;156.70;;;;;;;7.79;68.45;103162.06;682664;28;137262;-70
2021/12/17 01:12:20;;;;;;;186.13;177.13;;;;;;;7.78;68.67;103152.31;683081;28;138276;-70
2021/12/17 01:12:57;;;;;;;167.77;159.70;;;;;;;7.78;68.45;103158.53;681056;28;160923;-70
2021/12/17 01:13:37;;;;;;;181.38;172.57;;;;;;;7.80;68.53;103153.91;680003;28;160092;-70
2021/12/17 01:14:20;;;;;;;161.65;153.93;;;;;;;7.80;68.29;103156.59;679862;28;137550;-70
2021/12/17 01:15:00;;;;;;;152.27;145.02;;;;;;;7.79;68.38;103152.19;680060;28;138245;-69
2021/12/17 01:15:43;;;;;;;212.55;202.52;;;;;;;7.82;68.40;103151.13;681844;28;160567;-70
2021/12/17 01:16:21;;;;;;;183.10;174.30;;;;;;;7.83;68.42;103153.72;682245;28;135986;-70
2021/12/17 01:17:09;;;;;;;202.05;192.35;;;;;;;7.84;68.53;103155.44;679789;28;135803;-70
2021/12/17 01:17:57;;;;;;;178.98;170.32;;;;;;;7.81;68.54;103150.25;681283;28;135529;-70
2021/12/17 01:18:41;;;;;;;191.02;181.77;;;;;;;7.81;68.25;103146.72;682526;28;137546;-70
2021/12/17 01:19:14;;;;;;;192.88;183.55;;;;;;;7.76;68.20;103147.00;682742;28;138005;-70
2021/12/17 01:20:11;;;;;;;191.35;182.05;;;;;;;7.80;68.39;103151.22;683012;28;158938;-70
2021/12/17 01:20:47;;;;;;;202.65;192.73;;;;;;;7.78;68.52;103147.78;679251;28;137357;-70
2021/12/17 01:21:25;;;;;;;192.40;182.80;;;;;;;7.78;68.26;103153.16;678426;28;137472;-70
2021/12/17 01:22:27;;;;;;;215.73;205.07;;;;;;;7.78;68.64;103150.47;678776;28;135845;-69
2021/12/17 01:23:29;;;;;;;202.40;192.75;;;;;;;7.81;68.42;103150.25;682808;28;157213;-69
2021/12/17 01:24:14;;;;;;;185.30;176.35;;;;;;;7.79;68.64;103149.50;680957;28;137561;-70
2021/12/17 01:24:44;;;;;;;194.00;184.73;;;;;;;7.80;68.61;103161.97;679870;28;136117;-70
2021/12/17 01:25:12;;;;;;;187.32;178.23;;;;;;;7.78;68.54;103150.47;678743;28;161548;-70
2021/12/17 01:25:44;;;;;;;212.23;201.98;;;;;;;7.81;68.43;103155.63;677424;28;139063;-69
2021/12/17 01:35:57;;;;;;;182.32;173.52;;;;;;;7.81;68.49;103158.34;677393;28;159200;-70
2021/12/17 01:36:33;;;;;;;193.93;184.70;;;;;;;7.83;68.34;103161.78;674553;29;137399;-70
2021/12/17 01:37:15;;;;;;;226.85;215.95;;;;;;;7.83;68.33;103159.09;678366;29;21546;-70
2021/12/17 01:38:48;;;;;;;184.68;175.57;;;;;;;7.87;68.63;103165.16;676023;29;135946;-69
2021/12/17 01:40:02;;;;;;;197.07;187.35;;;;;;;7.88;68.52;103167.75;680611;28;180231;-69
2021/12/17 01:41:13;;;;;;;202.57;193.07;;;;;;;7.87;68.21;103167.84;681823;28;137804;-70
2021/12/17 01:41:54;;;;;;;217.40;207.13;;;;;;;7.85;68.30;103162.56;682896;28;138705;-70
2021/12/17 01:42:16;;;;;;;197.73;188.30;;;;;;;7.90;68.08;103164.97;682846;28;137705;-70
2021/12/17 01:42:37;;;;;;;211.20;201.10;;;;;;;7.90;68.06;103167.66;686099;28;47156;-70
2021/12/17 01:42:59;;;;;;;219.35;208.80;;;;;;;7.89;68.29;103160.53;685077;28;43251;-69
2021/12/17 01:43:21;;;;;;;206.15;196.20;;;;;;;7.87;68.02;103160.63;686089;28;45234;-69
2021/12/17 01:43:47;;;;;;;204.18;194.27;;;;;;;7.88;68.09;103162.38;681930;28;46700;-70
2021/12/17 01:44:10;;;;;;;227.07;216.20;;;;;;;7.90;67.99;103156.88;678830;28;138711;-70
2021/12/17 01:44:34;;;;;;;213.50;203.15;;;;;;;7.89;68.04;103161.38;679700;28;115112;-70
2021/12/17 01:44:57;;;;;;;209.52;199.30;;;;;;;7.90;67.98;103162.25;677855;28;90732;-70
2021/12/17 01:45:19;;;;;;;232.27;220.93;;;;;;;7.91;68.38;103159.44;679686;29;47784;-69
2021/12/17 01:45:42;;;;;;;217.43;206.68;;;;;;;7.92;68.07;103166.56;683827;28;67546;-70
2021/12/17 01:46:07;;;;;;;206.48;196.25;;;;;;;7.94;67.72;103163.78;682522;28;91921;-70
2021/12/17 01:46:32;;;;;;;225.50;214.35;;;;;;;7.91;67.79;103167.50;683870;28;67270;-70
2021/12/17 01:46:53;;;;;;;220.50;209.88;;;;;;;7.90;68.09;103165.81;683511;28;93245;-70
2021/12/17 01:47:15;;;;;;;205.88;196.07;;;;;;;7.90;67.67;103170.34;684877;28;32190;-70
2021/12/17 01:47:36;;;;;;;226.20;215.43;;;;;;;7.88;67.61;103165.06;684037;28;45904;-70
2021/12/17 01:47:59;;;;;;;227.85;216.85;;;;;;;7.87;67.89;103163.31;660576;28;41890;-70
2021/12/17 01:48:28;;;;;;;214.48;204.15;;;;;;;7.86;67.74;103174.19;680924;28;67631;-70
2021/12/17 01:49:00;;;;;;;221.82;211.38;;;;;;;7.84;68.08;103160.81;678221;28;138974;-70
2021/12/17 01:55:40;;;;;;;216.73;206.32;;;;;;;7.82;67.90;103161.88;678802;28;129576;-69
2021/12/17 01:56:04;;;;;;;168.23;160.18;;;;;;;7.81;68.18;103155.63;670899;29;136369;-69
2021/12/17 01:56:54;;;;;;;204.75;194.95;;;;;;;7.82;68.03;103151.13;670372;29;137359;-69
2021/12/17 01:59:22;;;;;;;189.57;180.45;;;;;;;7.81;68.05;103161.03;670401;29;138570;-69
2021/12/17 01:59:45;;;;;;;219.25;208.95;;;;;;;7.80;68.06;103151.22;671097;29;136426;-69
2021/12/17 02:00:10;;;;;;;233.20;222.23;;;;;;;7.80;68.31;103156.59;679794;28;44365;-69
2021/12/17 02:00:39;;;;;;;203.45;193.75;;;;;;;7.80;68.04;103153.91;678995;28;135893;-69
2021/12/17 02:01:01;;;;;;;204.15;194.32;;;;;;;7.80;68.06;103158.44;680342;28;92288;-69
2021/12/17 02:01:22;;;;;;;219.77;209.35;;;;;;;7.79;68.33;103159.38;682789;28;21540;-69
2021/12/17 02:01:44;;;;;;;212.95;202.80;;;;;;;7.78;68.15;103155.84;683466;28;46287;-69
2021/12/17 02:02:07;;;;;;;200.38;190.77;;;;;;;7.78;68.05;103158.53;685123;28;21052;-69
2021/12/17 02:02:31;;;;;;;210.55;200.48;;;;;;;7.76;68.26;103152.41;680713;28;92257;-69
2021/12/17 02:02:57;;;;;;;199.32;189.70;;;;;;;7.73;67.88;103142.69;679317;28;70279;-69
2021/12/17 02:03:36;;;;;;;223.25;212.73;;;;;;;7.75;68.43;103148.81;676175;28;137494;-69
2021/12/17 02:03:58;;;;;;;207.45;197.48;;;;;;;7.75;68.27;103147.97;682796;28;21318;-69
2021/12/17 02:04:19;;;;;;;200.18;190.50;;;;;;;7.74;68.20;103141.72;683709;28;44151;-69
2021/12/17 02:04:40;;;;;;;211.90;201.77;;;;;;;7.78;68.34;103150.47;688167;28;22413;-69
2021/12/17 02:05:01;;;;;;;206.32;196.45;;;;;;;7.79;68.28;103143.25;688112;28;22359;-69
2021/12/17 02:05:23;;;;;;;199.27;189.70;;;;;;;7.76;68.05;103150.56;685342;28;21512;-69
2021/12/17 02:05:45;;;;;;;210.23;200.15;;;;;;;7.79;68.38;103143.25;684192;28;45271;-69
2021/12/17 02:06:06;;;;;;;206.45;196.45;;;;;;;7.77;68.03;103143.34;680276;29;46382;-69
2021/12/17 02:06:29;;;;;;;203.73;193.93;;;;;;;7.79;68.41;103148.63;680606;29;44384;-69
2021/12/17 02:06:50;;;;;;;221.57;210.95;;;;;;;7.78;68.40;103144.22;680334;29;44383;-69
2021/12/17 02:07:13;;;;;;;214.25;204.00;;;;;;;7.80;67.96;103142.28;681868;28;21571;-69
2021/12/17 02:07:34;;;;;;;204.20;194.43;;;;;;;7.77;68.33;103148.72;683388;28;68427;-69
2021/12/17 02:07:57;;;;;;;218.40;207.88;;;;;;;7.80;68.09;103150.34;684861;28;23726;-69
2021/12/17 02:08:22;;;;;;;218.95;208.50;;;;;;;7.75;67.89;103142.59;680438;28;137809;-69
2021/12/17 02:08:46;;;;;;;208.48;198.57;;;;;;;7.76;68.09;103145.19;679383;28;45050;-69
2021/12/17 02:09:17;;;;;;;230.75;219.85;;;;;;;7.76;67.86;103141.63;678210;29;67470;-69
2021/12/17 02:10:55;;;;;;;208.15;198.23;;;;;;;7.76;67.88;103147.00;676778;28;137765;-69
2021/12/17 02:11:56;;;;;;;211.95;201.80;;;;;;;7.74;68.22;103146.22;676087;29;137604;-69
2021/12/17 02:12:26;;;;;;;249.55;237.93;;;;;;;7.73;67.94;103145.38;678453;28;137644;-69
2021/12/17 02:19:24;;;;;;;236.38;225.20;;;;;;;7.73;68.33;103144.53;675747;28;137758;-69
2021/12/17 02:19:42;;;;;;;152.30;145.00;;;;;;;7.70;68.26;103142.03;680720;28;158820;-69
2021/12/17 02:20:46;;;;;;;168.18;160.02;;;;;;;7.73;68.48;103144.53;681691;28;137518;-69
2021/12/17 02:21:31;;;;;;;168.38;160.20;;;;;;;7.73;68.23;103145.38;678946;28;137526;-69
2021/12/17 02:23:09;;;;;;;165.15;157.15;;;;;;;7.74;68.40;103146.22;679283;28;158801;-69
2021/12/17 02:29:07;;;;;;;165.98;157.95;;;;;;;7.75;68.19;103150.66;680613;28;138107;-69
2021/12/17 02:29:47;;;;;;;183.52;174.63;;;;;;;7.76;68.48;103147.00;681336;28;137802;-69
2021/12/17 02:30:38;;;;;;;164.38;156.38;;;;;;;7.74;67.89;103148.91;676269;28;137550;-69
2021/12/17 02:31:19;;;;;;;177.50;168.88;;;;;;;7.75;68.12;103147.97;678638;28;135912;-69
2021/12/17 02:31:40;;;;;;;151.70;144.50;;;;;;;7.74;68.34;103155.19;676414;28;135994;-69
2021/12/17 02:32:03;;;;;;;150.65;143.43;;;;;;;7.74;68.33;103140.84;681754;28;22411;-69
2021/12/17 02:32:27;;;;;;;157.23;149.63;;;;;;;7.75;68.07;103146.13;682187;28;69238;-69
2021/12/17 02:32:50;;;;;;;140.30;133.60;;;;;;;7.78;68.37;103144.22;679979;28;115096;-69
2021/12/17 02:33:11;;;;;;;76.70;73.10;;;;;;;7.78;68.34;103145.06;683074;28;45206;-69
2021/12/17 02:33:32;;;;;;;61.97;59.05;;;;;;;7.80;68.37;103145.84;684329;28;44387;-69
2021/12/17 02:33:55;;;;;;;58.45;55.65;;;;;;;7.79;68.43;103151.31;685108;28;22450;-69
2021/12/17 02:34:31;;;;;;;68.70;65.45;;;;;;;7.77;68.37;103143.34;681843;28;69736;-69
2021/12/17 02:35:12;;;;;;;150.98;143.68;;;;;;;7.78;67.98;103153.16;677564;28;136298;-69
2021/12/17 02:35:39;;;;;;;166.23;158.15;;;;;;;7.81;68.37;103152.09;676979;29;138463;-69
2021/12/17 02:36:02;;;;;;;172.25;163.82;;;;;;;7.81;67.97;103154.78;678945;28;158289;-69
2021/12/17 02:36:26;;;;;;;185.85;176.80;;;;;;;7.81;68.25;103152.09;683057;28;45306;-69
2021/12/17 02:36:49;;;;;;;221.30;210.75;;;;;;;7.80;68.01;103153.06;682106;28;115158;-69
2021/12/17 02:37:19;;;;;;;206.35;196.45;;;;;;;7.80;67.97;103153.91;682616;28;136190;-69
2021/12/17 02:38:00;;;;;;;204.55;194.77;;;;;;;7.81;67.95;103152.09;681033;28;157184;-69
2021/12/17 02:38:42;;;;;;;223.93;213.27;;;;;;;7.79;68.02;103159.38;679451;28;137428;-69
2021/12/17 02:39:31;;;;;;;205.30;195.40;;;;;;;7.79;67.90;103156.69;676411;29;137996;-69
2021/12/17 02:40:06;;;;;;;230.38;219.52;;;;;;;7.77;68.05;103151.41;678344;28;160707;-69
2021/12/17 02:42:37;;;;;;;225.77;215.05;;;;;;;7.76;68.00;103161.31;682636;28;136412;-69
2021/12/17 02:45:44;;;;;;;178.60;170.00;;;;;;;7.74;68.00;103162.38;684021;28;137677;-69
2021/12/17 02:46:06;;;;;;;209.80;199.98;;;;;;;7.74;68.17;103160.56;684372;28;44269;-69
2021/12/17 02:46:28;;;;;;;223.25;212.73;;;;;;;7.77;68.42;103156.78;683821;28;22404;-69
2021/12/17 02:46:49;;;;;;;211.43;201.32;;;;;;;7.76;68.27;103155.94;682526;28;46408;-69
2021/12/17 02:47:11;;;;;;;195.18;185.88;;;;;;;7.78;68.65;103163.91;684105;28;22442;-69
2021/12/17 02:47:32;;;;;;;211.00;201.02;;;;;;;7.79;68.49;103154.88;683414;28;45141;-69
2021/12/17 02:47:58;;;;;;;216.95;206.52;;;;;;;7.77;68.16;103156.78;683134;28;23480;-69
2021/12/17 02:48:21;;;;;;;197.23;187.75;;;;;;;7.81;68.35;103162.88;681516;28;136487;-69
2021/12/17 02:48:43;;;;;;;189.45;180.32;;;;;;;7.80;67.95;103164.66;680163;28;68428;-69
2021/12/17 02:49:04;;;;;;;212.73;202.57;;;;;;;7.80;68.32;103159.28;679414;28;45206;-69
2021/12/17 02:49:26;;;;;;;204.27;194.45;;;;;;;7.79;67.86;103167.44;680537;29;21130;-69
2021/12/17 02:49:50;;;;;;;183.52;174.65;;;;;;;7.78;68.10;103158.53;678548;29;69458;-69
2021/12/17 02:50:11;;;;;;;174.70;166.20;;;;;;;7.78;68.29;103163.91;681614;28;70141;-69
2021/12/17 02:50:33;;;;;;;188.85;179.77;;;;;;;7.78;68.07;103160.38;683374;28;23268;-69
2021/12/17 02:50:58;;;;;;;186.32;177.27;;;;;;;7.77;67.88;103162.16;683785;28;68142;-69
2021/12/17 02:51:22;;;;;;;174.40;165.93;;;;;;;7.75;68.05;103158.72;681521;28;92258;-69
2021/12/17 02:51:43;;;;;;;191.57;182.40;;;;;;;7.75;68.25;103161.41;682353;28;90343;-69
2021/12/17 02:52:06;;;;;;;182.88;174.02;;;;;;;7.71;67.86;103146.44;683816;28;23416;-69
2021/12/17 02:52:29;;;;;;;166.85;158.77;;;;;;;7.75;68.12;103150.66;681251;28;69455;-69
2021/12/17 02:52:51;;;;;;;172.27;163.93;;;;;;;7.75;67.95;103154.19;680973;28;67414;-69
2021/12/17 02:53:13;;;;;;;172.63;164.15;;;;;;;7.76;68.36;103147.00;684672;28;45335;-69
2021/12/17 02:53:34;;;;;;;172.60;164.13;;;;;;;7.71;68.27;103152.69;682864;28;47924;-69
2021/12/17 02:53:56;;;;;;;184.52;175.52;;;;;;;7.75;67.89;103158.72;682775;28;22373;-69
2021/12/17 02:54:17;;;;;;;171.40;163.02;;;;;;;7.74;68.18;103151.59;681647;28;46728;-69
2021/12/17 02:54:40;;;;;;;153.45;146.10;;;;;;;7.71;68.08;103147.31;682667;28;22391;-69
2021/12/17 02:55:02;;;;;;;170.50;162.30;;;;;;;7.72;68.15;103151.72;681153;28;69473;-69
2021/12/17 02:55:23;;;;;;;173.40;164.98;;;;;;;7.72;68.14;103145.47;679164;29;46416;-69
2021/12/17 02:55:48;;;;;;;164.40;156.40;;;;;;;7.69;68.18;103142.97;680868;28;22473;-69
2021/12/17 02:56:10;;;;;;;155.93;148.40;;;;;;;7.71;68.38;103143.75;680360;28;114981;-69
2021/12/17 02:56:31;;;;;;;169.48;161.30;;;;;;;7.72;68.26;103148.16;683059;28;46247;-68
2021/12/17 02:56:53;;;;;;;167.57;159.40;;;;;;;7.72;68.03;103145.47;684049;28;22394;-68
2021/12/17 02:57:14;;;;;;;153.27;145.88;;;;;;;7.71;68.47;103154.50;683070;28;44366;-68
2021/12/17 02:57:36;;;;;;;167.25;159.13;;;;;;;7.71;68.53;103155.38;683876;28;22471;-68
2021/12/17 02:57:58;;;;;;;179.50;170.68;;;;;;;7.69;68.18;103141.16;657817;28;66222;-68
2021/12/17 02:58:21;;;;;;;168.10;159.82;;;;;;;7.70;68.12;103150.09;686656;28;21198;-68
2021/12/17 02:58:43;;;;;;;166.90;158.90;;;;;;;7.69;68.17;103149.22;683911;28;92304;-68
2021/12/17 02:59:05;;;;;;;196.98;187.50;;;;;;;7.69;68.21;103157.28;685494;28;45352;-68
2021/12/17 02:59:26;;;;;;;191.77;182.60;;;;;;;7.68;68.25;103146.63;687374;28;1691;-68
2021/12/17 02:59:48;;;;;;;182.07;173.25;;;;;;;7.64;68.02;103143.28;686670;28;22479;-69
2021/12/17 03:00:10;;;;;;;177.85;169.18;;;;;;;7.68;68.09;103146.63;687889;28;22091;-68
2021/12/17 03:00:32;;;;;;;196.63;187.13;;;;;;;7.69;68.17;103146.53;687331;28;46436;-68
2021/12/17 03:00:54;;;;;;;190.05;180.77;;;;;;;7.68;68.50;103149.31;683917;28;68026;-68
2021/12/17 03:01:15;;;;;;;178.50;169.70;;;;;;;7.69;68.55;103151.06;683942;28;45234;-68
2021/12/17 03:01:37;;;;;;;184.60;175.63;;;;;;;7.65;68.38;103134.25;685716;28;1074;-68
2021/12/17 03:01:59;;;;;;;187.48;178.43;;;;;;;7.71;68.51;103143.75;684437;28;22398;-68
2021/12/17 03:02:23;;;;;;;182.88;174.00;;;;;;;7.71;68.13;103144.63;683066;28;47252;-68
2021/12/17 03:02:44;;;;;;;200.63;191.02;;;;;;;7.72;68.34;103142.78;681298;28;92343;-68
2021/12/17 03:03:06;;;;;;;194.50;185.10;;;;;;;7.72;68.31;103153.53;687337;28;46369;-69
2021/12/17 03:03:31;;;;;;;185.27;176.27;;;;;;;7.70;68.09;103137.50;688322;28;1725;-68
2021/12/17 03:03:53;;;;;;;204.27;194.38;;;;;;;7.66;68.25;103137.81;684709;28;116014;-68
2021/12/17 03:04:15;;;;;;;207.38;197.40;;;;;;;7.72;68.13;103134.72;682976;28;67624;-68
2021/12/17 03:04:39;;;;;;;197.57;188.07;;;;;;;7.72;68.15;103140.94;686342;28;899;-68
2021/12/17 03:05:02;;;;;;;195.98;186.60;;;;;;;7.73;68.52;103150.75;681803;28;90727;-68
2021/12/17 03:05:24;;;;;;;207.25;197.27;;;;;;;7.73;68.37;103141.84;682067;28;67486;-68
2021/12/17 03:05:46;;;;;;;192.25;182.85;;;;;;;7.73;68.24;103148.06;684026;28;45242;-68
2021/12/17 03:06:09;;;;;;;173.23;164.80;;;;;;;7.74;68.09;103144.44;680540;28;46356;-68
2021/12/17 03:06:31;;;;;;;189.20;180.10;;;;;;;7.75;68.04;103143.44;682189;28;46201;-68
2021/12/17 03:06:53;;;;;;;203.32;193.60;;;;;;;7.75;68.08;103145.28;679835;29;67466;-68
2021/12/17 03:07:14;;;;;;;191.32;182.05;;;;;;;7.74;67.79;103140.84;681809;28;22311;-68
2021/12/17 03:07:43;;;;;;;181.52;172.63;;;;;;;7.74;68.12;103143.53;680776;28;36283;-68
2021/12/17 03:08:07;;;;;;;195.10;185.65;;;;;;;7.70;67.66;103139.34;678531;28;138173;-68
2021/12/17 03:08:29;;;;;;;194.75;185.43;;;;;;;7.69;67.94;103141.16;683230;28;64884;-68
2021/12/17 03:08:50;;;;;;;192.38;183.07;;;;;;;7.72;67.80;103138.25;685337;28;46300;-68
2021/12/17 03:09:13;;;;;;;217.77;207.35;;;;;;;7.73;68.09;103141.84;683663;28;44312;-70
2021/12/17 03:10:01;;;;;;;217.73;207.27;;;;;;;7.73;68.23;103139.16;684270;28;46271;-70